sensor_id;sensor_type;location;lat;lon;timestamp;P1;durP1;ratioP1;P2;durP2;ratioP2
8650;SDS011;4363;52.346;14.516;2022-08-05T00:00:17;376.23;;;293.13;;
8650;SDS011;4363;52.346;14.516;2022-08-05T00:02:43;344.73;;;273.27;;
8650;SDS011;4363;52.346;14.516;2022-08-05T00:05:10;369.75;;;283.65;;
8650;SDS011;4363;52.346;14.516;2022-08-05T00:07:36;341.58;;;274.25;;
8650;SDS011;4363;52.346;14.516;2022-08-05T00:10:02;376.70;;;289.98;;
8650;SDS011;4363;52.346;14.516;2022-08-05T00:12:28;400.10;;;299.40;;
8650;SDS011;4363;52.346;14.516;2022-08-05T00:14:54;361.40;;;283.17;;
8650;SDS011;4363;52.346;14.516;2022-08-05T00:17:20;363.35;;;283.00;;
8650;SDS011;4363;52.346;14.516;2022-08-05T00:19:46;354.10;;;278.48;;
8650;SDS011;4363;52.346;14.516;2022-08-05T00:22:12;357.30;;;280.15;;
8650;SDS011;4363;52.346;14.516;2022-08-05T00:24:38;353.90;;;278.30;;
8650;SDS011;4363;52.346;14.516;2022-08-05T00:27:04;333.42;;;266.02;;
8650;SDS011;4363;52.346;14.516;2022-08-05T00:29:31;291.60;;;246.23;;
8650;SDS011;4363;52.346;14.516;2022-08-05T00:31:57;403.75;;;305.27;;
8650;SDS011;4363;52.346;14.516;2022-08-05T00:34:22;365.38;;;296.45;;
8650;SDS011;4363;52.346;14.516;2022-08-05T00:36:48;369.63;;;302.58;;
8650;SDS011;4363;52.346;14.516;2022-08-05T00:39:14;362.58;;;277.42;;
8650;SDS011;4363;52.346;14.516;2022-08-05T00:41:44;363.73;;;273.35;;
8650;SDS011;4363;52.346;14.516;2022-08-05T00:44:10;316.77;;;250.48;;
8650;SDS011;4363;52.346;14.516;2022-08-05T00:46:35;344.13;;;265.48;;
8650;SDS011;4363;52.346;14.516;2022-08-05T00:49:02;352.65;;;274.90;;
8650;SDS011;4363;52.346;14.516;2022-08-05T00:51:28;332.45;;;259.20;;
8650;SDS011;4363;52.346;14.516;2022-08-05T00:53:53;361.08;;;269.40;;
8650;SDS011;4363;52.346;14.516;2022-08-05T00:56:19;357.25;;;274.20;;
8650;SDS011;4363;52.346;14.516;2022-08-05T00:58:45;390.52;;;289.67;;
8650;SDS011;4363;52.346;14.516;2022-08-05T01:01:12;360.48;;;275.42;;
8650;SDS011;4363;52.346;14.516;2022-08-05T01:03:40;363.40;;;276.83;;
8650;SDS011;4363;52.346;14.516;2022-08-05T01:06:06;355.33;;;274.73;;
8650;SDS011;4363;52.346;14.516;2022-08-05T01:08:32;334.63;;;257.30;;
8650;SDS011;4363;52.346;14.516;2022-08-05T01:11:00;332.45;;;257.90;;
8650;SDS011;4363;52.346;14.516;2022-08-05T01:13:38;347.80;;;278.80;;
8650;SDS011;4363;52.346;14.516;2022-08-05T01:16:09;373.95;;;285.23;;
8650;SDS011;4363;52.346;14.516;2022-08-05T01:18:39;354.17;;;270.48;;
8650;SDS011;4363;52.346;14.516;2022-08-05T01:21:09;350.73;;;262.70;;
8650;SDS011;4363;52.346;14.516;2022-08-05T01:29:03;334.13;;;257.23;;
8650;SDS011;4363;52.346;14.516;2022-08-05T01:31:38;348.60;;;262.67;;
8650;SDS011;4363;52.346;14.516;2022-08-05T01:34:22;350.42;;;262.73;;
8650;SDS011;4363;52.346;14.516;2022-08-05T01:36:52;378.92;;;277.00;;
8650;SDS011;4363;52.346;14.516;2022-08-05T01:39:19;412.48;;;293.90;;
8650;SDS011;4363;52.346;14.516;2022-08-05T01:41:46;383.20;;;271.63;;
8650;SDS011;4363;52.346;14.516;2022-08-05T01:44:12;346.50;;;257.00;;
8650;SDS011;4363;52.346;14.516;2022-08-05T01:46:39;406.00;;;286.40;;
8650;SDS011;4363;52.346;14.516;2022-08-05T01:49:06;402.60;;;284.70;;
8650;SDS011;4363;52.346;14.516;2022-08-05T01:51:34;417.45;;;292.63;;
8650;SDS011;4363;52.346;14.516;2022-08-05T01:54:02;332.13;;;251.77;;
8650;SDS011;4363;52.346;14.516;2022-08-05T01:56:29;376.33;;;268.17;;
8650;SDS011;4363;52.346;14.516;2022-08-05T01:58:56;368.70;;;268.52;;
8650;SDS011;4363;52.346;14.516;2022-08-05T02:01:22;371.88;;;262.90;;
8650;SDS011;4363;52.346;14.516;2022-08-05T02:03:50;411.88;;;287.23;;
8650;SDS011;4363;52.346;14.516;2022-08-05T02:06:16;404.00;;;277.38;;
8650;SDS011;4363;52.346;14.516;2022-08-05T02:08:42;358.33;;;270.95;;
8650;SDS011;4363;52.346;14.516;2022-08-05T02:11:12;430.00;;;310.33;;
8650;SDS011;4363;52.346;14.516;2022-08-05T02:13:41;389.80;;;287.55;;
8650;SDS011;4363;52.346;14.516;2022-08-05T02:16:19;375.60;;;273.52;;
8650;SDS011;4363;52.346;14.516;2022-08-05T02:18:50;364.23;;;264.38;;
8650;SDS011;4363;52.346;14.516;2022-08-05T02:21:18;350.65;;;257.65;;
8650;SDS011;4363;52.346;14.516;2022-08-05T02:23:47;371.77;;;268.60;;
8650;SDS011;4363;52.346;14.516;2022-08-05T02:26:15;399.55;;;276.20;;
8650;SDS011;4363;52.346;14.516;2022-08-05T02:28:43;378.73;;;268.65;;
8650;SDS011;4363;52.346;14.516;2022-08-05T02:31:16;356.40;;;261.10;;
8650;SDS011;4363;52.346;14.516;2022-08-05T02:33:46;390.50;;;269.92;;
8650;SDS011;4363;52.346;14.516;2022-08-05T02:36:13;396.05;;;272.50;;
8650;SDS011;4363;52.346;14.516;2022-08-05T02:38:41;378.20;;;258.67;;
8650;SDS011;4363;52.346;14.516;2022-08-05T02:41:10;392.10;;;273.92;;
8650;SDS011;4363;52.346;14.516;2022-08-05T02:43:39;346.25;;;247.27;;
8650;SDS011;4363;52.346;14.516;2022-08-05T02:46:06;368.45;;;259.33;;
8650;SDS011;4363;52.346;14.516;2022-08-05T02:48:32;409.73;;;278.10;;
8650;SDS011;4363;52.346;14.516;2022-08-05T02:50:59;392.30;;;272.50;;
8650;SDS011;4363;52.346;14.516;2022-08-05T02:53:26;358.42;;;256.27;;
8650;SDS011;4363;52.346;14.516;2022-08-05T02:55:53;411.45;;;280.58;;
8650;SDS011;4363;52.346;14.516;2022-08-05T02:58:22;421.17;;;290.25;;
8650;SDS011;4363;52.346;14.516;2022-08-05T03:00:49;377.73;;;281.92;;
8650;SDS011;4363;52.346;14.516;2022-08-05T03:03:17;394.27;;;271.65;;
8650;SDS011;4363;52.346;14.516;2022-08-05T03:05:44;384.00;;;266.88;;
8650;SDS011;4363;52.346;14.516;2022-08-05T03:08:11;412.65;;;275.38;;
8650;SDS011;4363;52.346;14.516;2022-08-05T03:10:37;484.63;;;316.88;;
8650;SDS011;4363;52.346;14.516;2022-08-05T03:13:10;356.15;;;258.98;;
8650;SDS011;4363;52.346;14.516;2022-08-05T03:15:37;449.13;;;298.77;;
8650;SDS011;4363;52.346;14.516;2022-08-05T03:18:03;409.98;;;274.17;;
8650;SDS011;4363;52.346;14.516;2022-08-05T03:20:29;436.60;;;290.58;;
8650;SDS011;4363;52.346;14.516;2022-08-05T03:22:54;360.73;;;251.27;;
8650;SDS011;4363;52.346;14.516;2022-08-05T03:25:21;367.80;;;257.23;;
8650;SDS011;4363;52.346;14.516;2022-08-05T03:27:47;309.50;;;230.90;;
8650;SDS011;4363;52.346;14.516;2022-08-05T03:30:13;393.35;;;269.83;;
8650;SDS011;4363;52.346;14.516;2022-08-05T03:32:39;336.90;;;239.60;;
8650;SDS011;4363;52.346;14.516;2022-08-05T03:35:06;323.08;;;234.90;;
8650;SDS011;4363;52.346;14.516;2022-08-05T03:37:32;377.80;;;264.85;;
8650;SDS011;4363;52.346;14.516;2022-08-05T03:39:58;364.08;;;262.75;;
8650;SDS011;4363;52.346;14.516;2022-08-05T03:42:25;347.38;;;257.08;;
8650;SDS011;4363;52.346;14.516;2022-08-05T03:44:51;444.88;;;296.60;;
8650;SDS011;4363;52.346;14.516;2022-08-05T03:47:17;354.98;;;251.52;;
8650;SDS011;4363;52.346;14.516;2022-08-05T03:49:43;392.33;;;274.85;;
8650;SDS011;4363;52.346;14.516;2022-08-05T03:52:09;373.83;;;265.55;;
8650;SDS011;4363;52.346;14.516;2022-08-05T03:57:35;366.30;;;251.82;;
8650;SDS011;4363;52.346;14.516;2022-08-05T04:00:07;362.25;;;253.18;;
8650;SDS011;4363;52.346;14.516;2022-08-05T04:02:33;376.13;;;257.77;;
8650;SDS011;4363;52.346;14.516;2022-08-05T04:05:00;331.38;;;236.35;;
8650;SDS011;4363;52.346;14.516;2022-08-05T04:07:27;358.70;;;260.77;;
8650;SDS011;4363;52.346;14.516;2022-08-05T04:09:53;390.23;;;279.05;;
8650;SDS011;4363;52.346;14.516;2022-08-05T04:12:19;406.17;;;286.42;;
8650;SDS011;4363;52.346;14.516;2022-08-05T04:14:45;331.63;;;241.63;;
8650;SDS011;4363;52.346;14.516;2022-08-05T04:17:11;373.52;;;268.60;;
8650;SDS011;4363;52.346;14.516;2022-08-05T04:19:41;355.00;;;268.88;;
8650;SDS011;4363;52.346;14.516;2022-08-05T04:22:08;344.63;;;260.23;;
8650;SDS011;4363;52.346;14.516;2022-08-05T04:24:34;363.48;;;275.65;;
8650;SDS011;4363;52.346;14.516;2022-08-05T04:27:00;331.85;;;258.98;;
8650;SDS011;4363;52.346;14.516;2022-08-05T04:29:26;381.23;;;286.35;;
8650;SDS011;4363;52.346;14.516;2022-08-05T04:31:52;374.60;;;279.92;;
8650;SDS011;4363;52.346;14.516;2022-08-05T04:34:18;370.08;;;272.17;;
8650;SDS011;4363;52.346;14.516;2022-08-05T04:36:44;351.98;;;270.98;;
8650;SDS011;4363;52.346;14.516;2022-08-05T04:39:10;353.80;;;265.77;;
8650;SDS011;4363;52.346;14.516;2022-08-05T04:41:36;362.48;;;275.63;;
8650;SDS011;4363;52.346;14.516;2022-08-05T04:44:02;379.25;;;289.85;;
8650;SDS011;4363;52.346;14.516;2022-08-05T04:46:28;350.42;;;268.85;;
8650;SDS011;4363;52.346;14.516;2022-08-05T04:48:54;356.83;;;265.10;;
8650;SDS011;4363;52.346;14.516;2022-08-05T04:51:20;376.20;;;269.30;;
8650;SDS011;4363;52.346;14.516;2022-08-05T04:53:46;378.30;;;279.13;;
8650;SDS011;4363;52.346;14.516;2022-08-05T04:56:12;357.42;;;272.77;;
8650;SDS011;4363;52.346;14.516;2022-08-05T04:58:38;403.80;;;293.13;;
8650;SDS011;4363;52.346;14.516;2022-08-05T05:01:04;382.63;;;290.20;;
8650;SDS011;4363;52.346;14.516;2022-08-05T05:03:31;372.95;;;281.15;;
8650;SDS011;4363;52.346;14.516;2022-08-05T05:05:57;396.98;;;293.52;;
8650;SDS011;4363;52.346;14.516;2022-08-05T05:08:23;374.05;;;275.83;;
8650;SDS011;4363;52.346;14.516;2022-08-05T05:10:49;335.92;;;254.82;;
8650;SDS011;4363;52.346;14.516;2022-08-05T05:13:15;382.63;;;273.55;;
8650;SDS011;4363;52.346;14.516;2022-08-05T05:15:42;411.10;;;287.98;;
8650;SDS011;4363;52.346;14.516;2022-08-05T05:18:08;373.23;;;276.23;;
8650;SDS011;4363;52.346;14.516;2022-08-05T05:20:37;354.15;;;253.57;;
8650;SDS011;4363;52.346;14.516;2022-08-05T05:23:03;399.35;;;292.33;;
8650;SDS011;4363;52.346;14.516;2022-08-05T05:25:29;377.85;;;276.38;;
8650;SDS011;4363;52.346;14.516;2022-08-05T05:27:55;379.58;;;277.45;;
8650;SDS011;4363;52.346;14.516;2022-08-05T05:30:21;397.80;;;285.63;;
8650;SDS011;4363;52.346;14.516;2022-08-05T05:32:47;348.42;;;261.52;;
8650;SDS011;4363;52.346;14.516;2022-08-05T05:35:13;357.52;;;264.80;;
8650;SDS011;4363;52.346;14.516;2022-08-05T05:37:53;372.10;;;282.38;;
8650;SDS011;4363;52.346;14.516;2022-08-05T05:40:20;386.13;;;283.90;;
8650;SDS011;4363;52.346;14.516;2022-08-05T05:42:47;415.77;;;300.45;;
8650;SDS011;4363;52.346;14.516;2022-08-05T05:45:13;428.58;;;306.75;;
8650;SDS011;4363;52.346;14.516;2022-08-05T05:47:39;401.13;;;294.05;;
8650;SDS011;4363;52.346;14.516;2022-08-05T05:50:06;362.27;;;273.38;;
8650;SDS011;4363;52.346;14.516;2022-08-05T05:52:33;345.75;;;265.38;;
8650;SDS011;4363;52.346;14.516;2022-08-05T05:54:59;393.38;;;290.55;;
8650;SDS011;4363;52.346;14.516;2022-08-05T05:57:25;379.23;;;281.45;;
8650;SDS011;4363;52.346;14.516;2022-08-05T05:59:51;403.17;;;285.05;;
8650;SDS011;4363;52.346;14.516;2022-08-05T06:02:17;433.77;;;305.95;;
8650;SDS011;4363;52.346;14.516;2022-08-05T06:04:43;386.75;;;292.58;;
8650;SDS011;4363;52.346;14.516;2022-08-05T06:07:09;384.15;;;293.58;;
8650;SDS011;4363;52.346;14.516;2022-08-05T06:09:35;434.60;;;322.45;;
8650;SDS011;4363;52.346;14.516;2022-08-05T06:12:01;367.75;;;285.15;;
8650;SDS011;4363;52.346;14.516;2022-08-05T06:14:27;406.17;;;286.98;;
8650;SDS011;4363;52.346;14.516;2022-08-05T06:16:53;416.40;;;307.05;;
8650;SDS011;4363;52.346;14.516;2022-08-05T06:19:19;442.58;;;323.35;;
8650;SDS011;4363;52.346;14.516;2022-08-05T06:21:45;382.80;;;300.10;;
8650;SDS011;4363;52.346;14.516;2022-08-05T06:24:11;424.00;;;318.00;;
8650;SDS011;4363;52.346;14.516;2022-08-05T06:26:37;431.45;;;321.92;;
8650;SDS011;4363;52.346;14.516;2022-08-05T06:29:03;439.20;;;323.27;;
8650;SDS011;4363;52.346;14.516;2022-08-05T06:31:29;417.23;;;317.27;;
8650;SDS011;4363;52.346;14.516;2022-08-05T06:33:55;388.75;;;285.48;;
8650;SDS011;4363;52.346;14.516;2022-08-05T06:36:21;407.85;;;309.13;;
8650;SDS011;4363;52.346;14.516;2022-08-05T06:38:47;436.33;;;330.33;;
8650;SDS011;4363;52.346;14.516;2022-08-05T06:41:17;389.35;;;290.02;;
8650;SDS011;4363;52.346;14.516;2022-08-05T06:43:43;432.27;;;306.58;;
8650;SDS011;4363;52.346;14.516;2022-08-05T06:46:09;376.17;;;282.13;;
8650;SDS011;4363;52.346;14.516;2022-08-05T06:48:35;381.98;;;282.63;;
8650;SDS011;4363;52.346;14.516;2022-08-05T06:51:01;442.55;;;311.88;;
8650;SDS011;4363;52.346;14.516;2022-08-05T06:53:28;458.05;;;321.80;;
8650;SDS011;4363;52.346;14.516;2022-08-05T06:55:54;427.77;;;304.73;;
8650;SDS011;4363;52.346;14.516;2022-08-05T06:58:20;437.98;;;313.48;;
8650;SDS011;4363;52.346;14.516;2022-08-05T07:00:45;394.83;;;294.67;;
8650;SDS011;4363;52.346;14.516;2022-08-05T07:03:11;443.63;;;320.58;;
8650;SDS011;4363;52.346;14.516;2022-08-05T07:05:37;459.38;;;324.35;;
8650;SDS011;4363;52.346;14.516;2022-08-05T07:08:03;415.45;;;302.95;;
8650;SDS011;4363;52.346;14.516;2022-08-05T07:10:30;391.75;;;290.38;;
8650;SDS011;4363;52.346;14.516;2022-08-05T07:12:56;414.25;;;307.92;;
8650;SDS011;4363;52.346;14.516;2022-08-05T07:15:40;470.10;;;323.80;;
8650;SDS011;4363;52.346;14.516;2022-08-05T07:18:25;425.67;;;301.08;;
8650;SDS011;4363;52.346;14.516;2022-08-05T07:20:51;427.80;;;310.00;;
8650;SDS011;4363;52.346;14.516;2022-08-05T07:23:17;426.50;;;314.35;;
8650;SDS011;4363;52.346;14.516;2022-08-05T07:25:43;441.05;;;334.55;;
8650;SDS011;4363;52.346;14.516;2022-08-05T07:28:09;424.00;;;325.65;;
8650;SDS011;4363;52.346;14.516;2022-08-05T07:30:35;423.98;;;334.17;;
8650;SDS011;4363;52.346;14.516;2022-08-05T07:33:02;427.45;;;339.60;;
8650;SDS011;4363;52.346;14.516;2022-08-05T07:35:28;462.17;;;351.52;;
8650;SDS011;4363;52.346;14.516;2022-08-05T07:37:54;418.90;;;332.77;;
8650;SDS011;4363;52.346;14.516;2022-08-05T07:40:20;443.13;;;346.98;;
8650;SDS011;4363;52.346;14.516;2022-08-05T07:42:46;396.05;;;324.15;;
8650;SDS011;4363;52.346;14.516;2022-08-05T07:45:12;414.08;;;305.48;;
8650;SDS011;4363;52.346;14.516;2022-08-05T07:47:39;390.63;;;292.05;;
8650;SDS011;4363;52.346;14.516;2022-08-05T07:50:05;415.45;;;326.00;;
8650;SDS011;4363;52.346;14.516;2022-08-05T07:52:36;444.45;;;348.38;;
8650;SDS011;4363;52.346;14.516;2022-08-05T07:55:02;389.45;;;295.83;;
8650;SDS011;4363;52.346;14.516;2022-08-05T07:57:28;398.75;;;298.35;;
8650;SDS011;4363;52.346;14.516;2022-08-05T07:59:54;448.50;;;326.40;;
8650;SDS011;4363;52.346;14.516;2022-08-05T08:02:27;464.85;;;356.25;;
8650;SDS011;4363;52.346;14.516;2022-08-05T08:04:54;466.63;;;338.02;;
8650;SDS011;4363;52.346;14.516;2022-08-05T08:07:20;406.77;;;307.45;;
8650;SDS011;4363;52.346;14.516;2022-08-05T08:09:47;492.20;;;353.90;;
8650;SDS011;4363;52.346;14.516;2022-08-05T08:12:13;445.77;;;342.15;;
8650;SDS011;4363;52.346;14.516;2022-08-05T08:14:40;461.33;;;353.45;;
8650;SDS011;4363;52.346;14.516;2022-08-05T08:17:06;480.92;;;357.05;;
8650;SDS011;4363;52.346;14.516;2022-08-05T08:19:35;424.08;;;332.15;;
8650;SDS011;4363;52.346;14.516;2022-08-05T08:22:00;491.75;;;363.85;;
8650;SDS011;4363;52.346;14.516;2022-08-05T08:24:26;481.75;;;352.58;;
8650;SDS011;4363;52.346;14.516;2022-08-05T08:26:52;461.35;;;355.88;;
8650;SDS011;4363;52.346;14.516;2022-08-05T08:29:18;503.38;;;372.25;;
8650;SDS011;4363;52.346;14.516;2022-08-05T08:31:44;434.27;;;331.60;;
8650;SDS011;4363;52.346;14.516;2022-08-05T08:34:10;406.38;;;321.73;;
8650;SDS011;4363;52.346;14.516;2022-08-05T08:36:37;408.60;;;327.92;;
8650;SDS011;4363;52.346;14.516;2022-08-05T08:39:03;429.90;;;344.83;;
8650;SDS011;4363;52.346;14.516;2022-08-05T08:41:31;428.42;;;336.23;;
8650;SDS011;4363;52.346;14.516;2022-08-05T08:43:58;419.83;;;329.77;;
8650;SDS011;4363;52.346;14.516;2022-08-05T08:46:26;445.48;;;338.00;;
8650;SDS011;4363;52.346;14.516;2022-08-05T08:48:53;420.15;;;345.42;;
8650;SDS011;4363;52.346;14.516;2022-08-05T08:51:19;493.42;;;381.50;;
8650;SDS011;4363;52.346;14.516;2022-08-05T08:53:45;456.45;;;340.30;;
8650;SDS011;4363;52.346;14.516;2022-08-05T08:56:11;415.35;;;323.10;;
8650;SDS011;4363;52.346;14.516;2022-08-05T08:58:37;428.25;;;321.83;;
8650;SDS011;4363;52.346;14.516;2022-08-05T09:01:04;459.33;;;341.05;;
8650;SDS011;4363;52.346;14.516;2022-08-05T09:03:30;404.52;;;309.38;;
8650;SDS011;4363;52.346;14.516;2022-08-05T09:05:56;416.23;;;321.40;;
8650;SDS011;4363;52.346;14.516;2022-08-05T09:08:22;450.25;;;344.08;;
8650;SDS011;4363;52.346;14.516;2022-08-05T09:10:48;456.27;;;335.65;;
8650;SDS011;4363;52.346;14.516;2022-08-05T09:13:16;477.77;;;357.63;;
8650;SDS011;4363;52.346;14.516;2022-08-05T09:15:43;460.33;;;343.90;;
8650;SDS011;4363;52.346;14.516;2022-08-05T09:18:14;426.40;;;328.30;;
8650;SDS011;4363;52.346;14.516;2022-08-05T09:20:40;410.17;;;333.33;;
8650;SDS011;4363;52.346;14.516;2022-08-05T09:23:12;406.95;;;342.90;;
8650;SDS011;4363;52.346;14.516;2022-08-05T09:25:42;448.67;;;351.85;;
8650;SDS011;4363;52.346;14.516;2022-08-05T09:28:09;388.15;;;332.88;;
8650;SDS011;4363;52.346;14.516;2022-08-05T09:30:35;452.88;;;370.55;;
8650;SDS011;4363;52.346;14.516;2022-08-05T09:33:01;441.30;;;366.80;;
8650;SDS011;4363;52.346;14.516;2022-08-05T09:35:27;436.27;;;364.48;;
8650;SDS011;4363;52.346;14.516;2022-08-05T09:37:54;419.33;;;361.75;;
8650;SDS011;4363;52.346;14.516;2022-08-05T09:40:54;421.55;;;334.35;;
8650;SDS011;4363;52.346;14.516;2022-08-05T09:43:26;398.08;;;345.70;;
8650;SDS011;4363;52.346;14.516;2022-08-05T09:45:53;467.60;;;399.30;;
8650;SDS011;4363;52.346;14.516;2022-08-05T09:48:22;605.65;;;429.05;;
8650;SDS011;4363;52.346;14.516;2022-08-05T09:50:52;529.90;;;380.27;;
8650;SDS011;4363;52.346;14.516;2022-08-05T09:53:19;510.20;;;375.60;;
8650;SDS011;4363;52.346;14.516;2022-08-05T09:55:45;437.65;;;351.77;;
8650;SDS011;4363;52.346;14.516;2022-08-05T09:58:11;418.55;;;345.02;;
8650;SDS011;4363;52.346;14.516;2022-08-05T10:00:38;439.13;;;349.77;;
8650;SDS011;4363;52.346;14.516;2022-08-05T10:03:08;390.73;;;330.13;;
8650;SDS011;4363;52.346;14.516;2022-08-05T10:05:34;547.33;;;404.45;;
8650;SDS011;4363;52.346;14.516;2022-08-05T10:08:02;441.25;;;352.67;;
8650;SDS011;4363;52.346;14.516;2022-08-05T10:10:32;480.30;;;370.23;;
8650;SDS011;4363;52.346;14.516;2022-08-05T10:13:01;514.33;;;401.95;;
8650;SDS011;4363;52.346;14.516;2022-08-05T10:15:28;471.55;;;378.83;;
8650;SDS011;4363;52.346;14.516;2022-08-05T10:18:12;456.42;;;366.58;;
8650;SDS011;4363;52.346;14.516;2022-08-05T10:23:11;511.73;;;383.95;;
8650;SDS011;4363;52.346;14.516;2022-08-05T10:25:38;470.92;;;365.20;;
8650;SDS011;4363;52.346;14.516;2022-08-05T10:28:04;465.10;;;361.33;;
8650;SDS011;4363;52.346;14.516;2022-08-05T10:30:30;498.75;;;377.67;;
8650;SDS011;4363;52.346;14.516;2022-08-05T10:32:57;483.60;;;371.92;;
8650;SDS011;4363;52.346;14.516;2022-08-05T10:35:23;442.45;;;344.95;;
8650;SDS011;4363;52.346;14.516;2022-08-05T10:37:49;438.00;;;342.73;;
8650;SDS011;4363;52.346;14.516;2022-08-05T10:40:20;565.85;;;411.08;;
8650;SDS011;4363;52.346;14.516;2022-08-05T10:42:50;562.72;;;414.73;;
8650;SDS011;4363;52.346;14.516;2022-08-05T10:45:22;476.40;;;364.38;;
8650;SDS011;4363;52.346;14.516;2022-08-05T10:47:49;451.05;;;356.02;;
8650;SDS011;4363;52.346;14.516;2022-08-05T10:50:15;464.67;;;357.95;;
8650;SDS011;4363;52.346;14.516;2022-08-05T10:52:43;420.75;;;341.23;;
8650;SDS011;4363;52.346;14.516;2022-08-05T10:55:11;411.67;;;332.65;;
8650;SDS011;4363;52.346;14.516;2022-08-05T10:57:38;443.90;;;351.02;;
8650;SDS011;4363;52.346;14.516;2022-08-05T11:00:15;419.30;;;338.83;;
8650;SDS011;4363;52.346;14.516;2022-08-05T11:05:23;449.08;;;364.60;;
8650;SDS011;4363;52.346;14.516;2022-08-05T11:07:56;443.55;;;356.05;;
8650;SDS011;4363;52.346;14.516;2022-08-05T11:10:22;420.73;;;359.35;;
8650;SDS011;4363;52.346;14.516;2022-08-05T11:12:49;420.95;;;356.15;;
8650;SDS011;4363;52.346;14.516;2022-08-05T11:15:16;456.92;;;360.05;;
8650;SDS011;4363;52.346;14.516;2022-08-05T11:17:43;434.83;;;349.70;;
8650;SDS011;4363;52.346;14.516;2022-08-05T11:22:53;456.02;;;366.33;;
8650;SDS011;4363;52.346;14.516;2022-08-05T11:25:26;447.75;;;361.70;;
8650;SDS011;4363;52.346;14.516;2022-08-05T11:27:53;418.88;;;348.48;;
8650;SDS011;4363;52.346;14.516;2022-08-05T11:30:19;466.45;;;380.65;;
8650;SDS011;4363;52.346;14.516;2022-08-05T11:32:45;477.60;;;389.75;;
8650;SDS011;4363;52.346;14.516;2022-08-05T11:35:50;438.55;;;363.88;;
8650;SDS011;4363;52.346;14.516;2022-08-05T11:38:06;429.27;;;359.48;;
8650;SDS011;4363;52.346;14.516;2022-08-05T11:43:19;441.17;;;371.92;;
8650;SDS011;4363;52.346;14.516;2022-08-05T11:45:46;438.63;;;369.23;;
8650;SDS011;4363;52.346;14.516;2022-08-05T11:48:12;416.05;;;359.15;;
8650;SDS011;4363;52.346;14.516;2022-08-05T11:50:38;434.55;;;362.67;;
8650;SDS011;4363;52.346;14.516;2022-08-05T11:53:04;416.45;;;356.73;;
8650;SDS011;4363;52.346;14.516;2022-08-05T11:55:30;465.88;;;378.15;;
8650;SDS011;4363;52.346;14.516;2022-08-05T11:57:56;438.77;;;363.73;;
8650;SDS011;4363;52.346;14.516;2022-08-05T12:00:25;493.60;;;398.17;;
8650;SDS011;4363;52.346;14.516;2022-08-05T12:02:51;467.15;;;390.48;;
8650;SDS011;4363;52.346;14.516;2022-08-05T12:05:24;479.05;;;395.27;;
8650;SDS011;4363;52.346;14.516;2022-08-05T12:07:51;431.60;;;380.58;;
8650;SDS011;4363;52.346;14.516;2022-08-05T12:10:17;437.13;;;376.95;;
8650;SDS011;4363;52.346;14.516;2022-08-05T12:12:44;445.73;;;380.25;;
8650;SDS011;4363;52.346;14.516;2022-08-05T12:15:19;448.13;;;385.27;;
8650;SDS011;4363;52.346;14.516;2022-08-05T12:17:45;450.67;;;382.00;;
8650;SDS011;4363;52.346;14.516;2022-08-05T12:20:11;439.85;;;382.02;;
8650;SDS011;4363;52.346;14.516;2022-08-05T12:22:37;458.35;;;408.23;;
8650;SDS011;4363;52.346;14.516;2022-08-05T12:25:04;443.45;;;377.85;;
8650;SDS011;4363;52.346;14.516;2022-08-05T12:27:30;439.73;;;379.92;;
8650;SDS011;4363;52.346;14.516;2022-08-05T12:30:06;472.17;;;392.70;;
8650;SDS011;4363;52.346;14.516;2022-08-05T12:32:33;488.33;;;400.40;;
8650;SDS011;4363;52.346;14.516;2022-08-05T12:35:02;466.13;;;379.85;;
8650;SDS011;4363;52.346;14.516;2022-08-05T12:37:29;431.63;;;352.42;;
8650;SDS011;4363;52.346;14.516;2022-08-05T12:39:55;444.83;;;352.83;;
8650;SDS011;4363;52.346;14.516;2022-08-05T12:42:21;397.88;;;331.20;;
8650;SDS011;4363;52.346;14.516;2022-08-05T12:44:47;410.98;;;330.83;;
8650;SDS011;4363;52.346;14.516;2022-08-05T12:47:24;442.58;;;346.60;;
8650;SDS011;4363;52.346;14.516;2022-08-05T12:49:51;479.35;;;373.70;;
8650;SDS011;4363;52.346;14.516;2022-08-05T12:52:17;390.27;;;311.92;;
8650;SDS011;4363;52.346;14.516;2022-08-05T12:54:46;400.48;;;312.85;;
8650;SDS011;4363;52.346;14.516;2022-08-05T12:57:13;420.17;;;323.52;;
8650;SDS011;4363;52.346;14.516;2022-08-05T12:59:44;442.58;;;334.92;;
8650;SDS011;4363;52.346;14.516;2022-08-05T13:02:10;445.17;;;344.10;;
8650;SDS011;4363;52.346;14.516;2022-08-05T13:04:39;453.08;;;334.90;;
8650;SDS011;4363;52.346;14.516;2022-08-05T13:07:07;449.88;;;335.27;;
8650;SDS011;4363;52.346;14.516;2022-08-05T13:09:37;436.73;;;336.52;;
8650;SDS011;4363;52.346;14.516;2022-08-05T13:12:04;420.73;;;324.55;;
8650;SDS011;4363;52.346;14.516;2022-08-05T13:14:37;462.45;;;348.70;;
8650;SDS011;4363;52.346;14.516;2022-08-05T13:17:09;395.67;;;308.35;;
8650;SDS011;4363;52.346;14.516;2022-08-05T13:19:41;372.10;;;298.40;;
8650;SDS011;4363;52.346;14.516;2022-08-05T13:22:08;379.50;;;300.33;;
8650;SDS011;4363;52.346;14.516;2022-08-05T13:24:34;417.25;;;315.80;;
8650;SDS011;4363;52.346;14.516;2022-08-05T13:27:00;439.95;;;327.70;;
8650;SDS011;4363;52.346;14.516;2022-08-05T13:29:26;429.95;;;323.50;;
8650;SDS011;4363;52.346;14.516;2022-08-05T13:31:52;425.45;;;325.80;;
8650;SDS011;4363;52.346;14.516;2022-08-05T13:34:18;399.17;;;306.85;;
8650;SDS011;4363;52.346;14.516;2022-08-05T13:36:44;439.83;;;327.42;;
8650;SDS011;4363;52.346;14.516;2022-08-05T13:39:10;396.70;;;319.02;;
8650;SDS011;4363;52.346;14.516;2022-08-05T13:41:37;407.67;;;316.77;;
8650;SDS011;4363;52.346;14.516;2022-08-05T13:44:03;392.05;;;298.13;;
8650;SDS011;4363;52.346;14.516;2022-08-05T13:46:29;410.70;;;309.88;;
8650;SDS011;4363;52.346;14.516;2022-08-05T13:48:55;409.33;;;311.42;;
8650;SDS011;4363;52.346;14.516;2022-08-05T13:51:25;463.80;;;351.45;;
8650;SDS011;4363;52.346;14.516;2022-08-05T13:53:52;442.13;;;347.15;;
8650;SDS011;4363;52.346;14.516;2022-08-05T13:56:18;449.13;;;344.65;;
8650;SDS011;4363;52.346;14.516;2022-08-05T13:58:44;415.90;;;331.15;;
8650;SDS011;4363;52.346;14.516;2022-08-05T14:01:10;398.90;;;318.02;;
8650;SDS011;4363;52.346;14.516;2022-08-05T14:03:36;428.52;;;343.98;;
8650;SDS011;4363;52.346;14.516;2022-08-05T14:06:02;423.02;;;358.75;;
8650;SDS011;4363;52.346;14.516;2022-08-05T14:08:28;407.70;;;343.58;;
8650;SDS011;4363;52.346;14.516;2022-08-05T14:10:54;443.50;;;368.35;;
8650;SDS011;4363;52.346;14.516;2022-08-05T14:13:20;457.05;;;363.75;;
8650;SDS011;4363;52.346;14.516;2022-08-05T14:15:46;450.40;;;371.27;;
8650;SDS011;4363;52.346;14.516;2022-08-05T14:18:12;452.27;;;374.25;;
8650;SDS011;4363;52.346;14.516;2022-08-05T14:20:38;436.08;;;372.00;;
8650;SDS011;4363;52.346;14.516;2022-08-05T14:23:04;417.20;;;369.70;;
8650;SDS011;4363;52.346;14.516;2022-08-05T14:25:30;497.00;;;413.20;;
8650;SDS011;4363;52.346;14.516;2022-08-05T14:27:56;440.90;;;389.92;;